createdAt,value
2023-01-30T00:00:07.915Z,5.39
2023-01-30T00:00:45.269Z,5.36
2023-01-30T00:01:25.601Z,5.41
2023-01-30T00:01:57.572Z,5.40
2023-01-30T00:03:18.523Z,5.38
2023-01-30T00:04:00.273Z,5.41
2023-01-30T00:04:32.474Z,5.43
2023-01-30T00:05:16.157Z,5.42
2023-01-30T00:05:55.480Z,5.42
2023-01-30T00:06:29.498Z,5.42
2023-01-30T00:07:04.255Z,5.44
2023-01-30T00:07:38.478Z,5.44
2023-01-30T00:08:12.654Z,5.43
2023-01-30T00:08:47.471Z,5.46
2023-01-30T00:09:20.944Z,5.46
2023-01-30T00:09:52.698Z,5.41
2023-01-30T00:10:26.069Z,5.46
2023-01-30T00:10:59.350Z,5.44
2023-01-30T00:11:33.352Z,5.44
2023-01-30T00:12:08.601Z,5.47
2023-01-30T00:13:32.148Z,5.46
2023-01-30T00:14:06.432Z,5.50
2023-01-30T00:14:41.221Z,5.45
2023-01-30T00:15:15.361Z,5.49
2023-01-30T00:15:48.348Z,5.48
2023-01-30T00:16:35.548Z,5.46
2023-01-30T00:17:09.596Z,5.52
2023-01-30T00:17:43.807Z,5.52
2023-01-30T00:18:18.440Z,5.49
2023-01-30T00:18:55.932Z,5.51
2023-01-30T00:19:30.169Z,5.51
2023-01-30T00:20:04.335Z,5.52
2023-01-30T00:20:42.125Z,5.53
2023-01-30T00:21:17.246Z,5.54
2023-01-30T00:21:51.524Z,5.53
2023-01-30T00:22:28.212Z,5.55
2023-01-30T00:23:02.354Z,5.54
2023-01-30T00:23:42.719Z,5.53
2023-01-30T00:24:14.714Z,5.56
2023-01-30T00:24:51.605Z,5.59
2023-01-30T00:25:23.629Z,5.58
2023-01-30T00:25:58.691Z,5.60
2023-01-30T00:26:32.673Z,5.59
2023-01-30T00:27:06.295Z,5.57
2023-01-30T00:27:40.980Z,5.58
2023-01-30T00:28:15.715Z,5.60
2023-01-30T00:28:49.454Z,5.62
2023-01-30T00:29:24.211Z,5.61
2023-01-30T00:30:02.699Z,5.62
2023-01-30T00:30:37.416Z,5.61
2023-01-30T00:31:16.796Z,5.65
2023-01-30T00:31:51.030Z,5.66
2023-01-30T00:32:23.986Z,5.65
2023-01-30T00:32:59.890Z,5.65
2023-01-30T00:33:34.589Z,5.65
2023-01-30T00:34:08.300Z,5.65
2023-01-30T00:34:41.928Z,5.64
2023-01-30T00:35:16.059Z,5.67
2023-01-30T00:35:51.785Z,5.68
2023-01-30T00:36:26.422Z,5.67
2023-01-30T00:37:08.222Z,5.63
2023-01-30T00:37:44.740Z,5.70
2023-01-30T00:38:23.382Z,5.71
2023-01-30T00:38:59.874Z,5.67
2023-01-30T00:39:31.415Z,5.68
2023-01-30T00:40:05.795Z,5.68
2023-01-30T00:40:40.008Z,5.72
2023-01-30T00:41:13.923Z,5.69
2023-01-30T00:42:04.017Z,5.68
2023-01-30T00:42:54.134Z,5.73
2023-01-30T00:43:44.243Z,5.73
2023-01-30T00:44:34.304Z,5.74
2023-01-30T00:45:24.835Z,5.74
2023-01-30T00:46:15.068Z,5.75
2023-01-30T00:47:05.267Z,5.76
2023-01-30T00:47:36.957Z,5.76
2023-01-30T00:48:08.911Z,5.78
2023-01-30T00:48:40.393Z,5.77
2023-01-30T00:49:14.887Z,5.77
2023-01-30T00:49:47.171Z,5.76
2023-01-30T00:50:22.194Z,5.75
2023-01-30T00:50:57.108Z,5.74
2023-01-30T00:51:29.005Z,5.76
2023-01-30T00:52:03.247Z,5.76
2023-01-30T00:52:40.535Z,5.79
2023-01-30T00:53:16.787Z,5.81
2023-01-30T00:53:53.697Z,5.82
2023-01-30T00:54:25.594Z,5.78
2023-01-30T00:55:00.428Z,5.82
2023-01-30T00:55:34.713Z,5.79
2023-01-30T00:56:10.098Z,5.80
2023-01-30T00:56:44.303Z,5.81
2023-01-30T00:57:19.149Z,5.82
2023-01-30T00:57:51.265Z,5.83
2023-01-30T00:58:24.054Z,5.84
2023-01-30T00:58:58.320Z,5.84
2023-01-30T00:59:35.606Z,5.83
2023-01-30T01:00:09.359Z,5.86
2023-01-30T01:00:44.156Z,5.84
2023-01-30T01:01:18.732Z,5.86
2023-01-30T01:01:52.903Z,5.86
2023-01-30T01:02:24.660Z,5.88
2023-01-30T01:02:58.697Z,5.85
2023-01-30T01:03:32.398Z,5.92
2023-01-30T01:04:04.313Z,5.91
2023-01-30T01:04:43.711Z,5.89
2023-01-30T01:05:15.503Z,5.91
2023-01-30T01:05:49.006Z,5.90
2023-01-30T01:06:23.020Z,5.95
2023-01-30T01:07:44.286Z,5.89
2023-01-30T01:08:19.663Z,5.92
2023-01-30T01:08:53.581Z,5.92
2023-01-30T01:09:27.101Z,5.94
2023-01-30T01:10:01.880Z,5.92
2023-01-30T01:10:39.360Z,5.92
2023-01-30T01:11:14.020Z,5.98
2023-01-30T01:11:51.046Z,5.95
2023-01-30T01:12:25.277Z,5.94
2023-01-30T01:13:05.150Z,5.92
2023-01-30T01:13:39.257Z,5.96
2023-01-30T01:14:11.116Z,5.98
2023-01-30T01:14:43.121Z,5.97
2023-01-30T01:15:15.804Z,5.94
2023-01-30T01:15:50.003Z,5.99
2023-01-30T01:16:25.944Z,5.99
2023-01-30T01:16:57.843Z,5.98
2023-01-30T01:17:31.551Z,5.99
2023-01-30T01:18:05.832Z,5.99
2023-01-30T01:18:37.644Z,6.02
2023-01-30T01:19:12.481Z,5.99
2023-01-30T01:19:47.044Z,6.00
2023-01-30T01:20:22.011Z,5.98
2023-01-30T01:20:56.775Z,5.97
2023-01-30T01:21:31.090Z,5.99
2023-01-30T01:22:05.292Z,6.01
2023-01-30T01:22:39.116Z,5.99
2023-01-30T01:23:14.209Z,6.02
2023-01-30T01:23:51.309Z,5.99
2023-01-30T01:24:25.324Z,6.00
2023-01-30T01:24:57.271Z,5.99
2023-01-30T01:25:29.309Z,5.99
2023-01-30T01:26:09.621Z,6.01
2023-01-30T01:26:44.498Z,6.01
2023-01-30T01:27:25.275Z,6.02
2023-01-30T01:27:57.072Z,5.98
2023-01-30T01:28:32.276Z,6.01
2023-01-30T01:29:06.582Z,6.03
2023-01-30T01:29:45.773Z,5.99
2023-01-30T01:30:26.699Z,6.01
2023-01-30T01:31:01.084Z,5.99
2023-01-30T01:31:41.344Z,6.00
2023-01-30T01:32:15.339Z,6.00
2023-01-30T01:32:49.635Z,6.01
2023-01-30T01:33:23.856Z,6.03
2023-01-30T01:34:01.081Z,6.00
2023-01-30T01:34:36.750Z,6.02
2023-01-30T01:35:14.117Z,6.02
2023-01-30T01:35:48.042Z,6.01
2023-01-30T01:36:51.780Z,6.02
2023-01-30T01:37:16.873Z,6.03
2023-01-30T01:37:50.571Z,6.01
2023-01-30T01:38:22.410Z,6.02
2023-01-30T01:38:56.734Z,5.99
2023-01-30T01:39:51.092Z,6.02
2023-01-30T01:40:46.959Z,6.01
2023-01-30T01:41:26.630Z,6.02
2023-01-30T01:42:00.144Z,6.04
2023-01-30T01:42:37.319Z,6.00
2023-01-30T01:43:20.413Z,6.03
2023-01-30T01:44:08.197Z,6.05
2023-01-30T01:45:14.194Z,6.05
2023-01-30T01:45:52.471Z,6.02
2023-01-30T01:46:31.133Z,6.03
2023-01-30T01:47:06.263Z,6.05
2023-01-30T01:47:43.459Z,6.04
2023-01-30T01:48:30.326Z,6.03
2023-01-30T01:49:07.155Z,5.99
2023-01-30T01:49:47.216Z,6.03
2023-01-30T01:50:23.520Z,6.05
2023-01-30T01:51:00.754Z,5.98
2023-01-30T01:51:41.783Z,6.00
2023-01-30T01:52:17.359Z,6.04
2023-01-30T01:52:55.359Z,5.99
2023-01-30T01:53:53.005Z,6.03
2023-01-30T01:54:52.515Z,6.04
2023-01-30T01:55:29.566Z,6.01
2023-01-30T01:56:05.930Z,6.01
2023-01-30T01:56:43.596Z,6.02
2023-01-30T01:57:23.740Z,6.04
2023-01-30T01:58:04.457Z,6.03
2023-01-30T01:58:42.838Z,5.99
2023-01-30T01:59:29.306Z,6.01
2023-01-30T02:00:13.284Z,6.06
2023-01-30T02:00:48.918Z,6.04
2023-01-30T02:01:21.095Z,6.03
2023-01-30T02:01:58.785Z,6.01
2023-01-30T02:02:33.097Z,6.05
2023-01-30T02:03:16.831Z,6.05
2023-01-30T02:05:02.231Z,6.04
2023-01-30T02:05:43.778Z,6.06
2023-01-30T02:06:19.838Z,6.01
2023-01-30T02:06:53.279Z,6.04
2023-01-30T02:07:25.791Z,6.05
2023-01-30T02:08:07.704Z,6.00
2023-01-30T02:08:47.452Z,6.04
2023-01-30T02:09:21.663Z,6.05
2023-01-30T02:09:56.083Z,6.03
2023-01-30T02:10:50.594Z,6.07
2023-01-30T02:11:32.117Z,6.05
2023-01-30T02:12:08.825Z,6.02
2023-01-30T02:12:43.296Z,6.05
2023-01-30T02:13:17.565Z,6.03
2023-01-30T02:13:53.456Z,6.04
2023-01-30T02:14:33.846Z,6.09
2023-01-30T02:15:09.111Z,6.06
2023-01-30T02:15:45.825Z,6.06
2023-01-30T02:16:20.419Z,6.09
2023-01-30T02:16:55.062Z,6.06
2023-01-30T02:17:29.373Z,6.10
2023-01-30T02:18:01.236Z,6.05
2023-01-30T02:18:37.726Z,6.06
2023-01-30T02:19:22.340Z,6.05
2023-01-30T02:20:21.453Z,6.11
2023-01-30T02:21:18.092Z,6.12
2023-01-30T02:22:20.390Z,6.12
2023-01-30T02:23:31.139Z,6.10
2023-01-30T02:24:20.885Z,6.11
2023-01-30T02:25:17.188Z,6.11
2023-01-30T02:25:54.514Z,6.12
2023-01-30T02:26:39.361Z,6.12
2023-01-30T02:27:47.983Z,6.12
2023-01-30T02:28:40.225Z,6.12
2023-01-30T02:29:33.483Z,6.12
2023-01-30T02:30:56.213Z,6.12
2023-01-30T02:31:39.847Z,6.12
2023-01-30T02:32:26.273Z,6.13
2023-01-30T02:33:30.585Z,6.13
2023-01-30T02:34:07.966Z,6.13
2023-01-30T02:34:48.547Z,6.13
2023-01-30T02:35:43.001Z,6.13
2023-01-30T02:36:26.420Z,6.14
2023-01-30T02:37:27.642Z,6.14
2023-01-30T02:38:11.137Z,6.13
2023-01-30T02:38:48.379Z,6.14
2023-01-30T02:39:44.070Z,6.13
2023-01-30T02:40:34.198Z,6.14
2023-01-30T02:41:27.082Z,6.13
2023-01-30T02:42:15.812Z,6.14
2023-01-30T02:43:20.985Z,6.15
2023-01-30T02:44:09.545Z,6.15
2023-01-30T02:45:01.172Z,6.16
2023-01-30T02:45:51.225Z,6.14
2023-01-30T02:46:46.452Z,6.16
2023-01-30T02:47:28.161Z,6.14
2023-01-30T02:48:06.211Z,6.13
2023-01-30T02:48:44.014Z,6.16
2023-01-30T02:49:24.321Z,6.12
2023-01-30T02:50:07.352Z,6.16
2023-01-30T02:50:47.936Z,6.14
2023-01-30T02:51:26.310Z,6.15
2023-01-30T02:52:03.353Z,6.15
2023-01-30T02:52:35.838Z,6.14
2023-01-30T02:53:07.924Z,6.13
2023-01-30T02:53:39.632Z,6.11
2023-01-30T02:54:13.656Z,6.12
2023-01-30T02:54:54.015Z,6.13
2023-01-30T02:55:31.003Z,6.13
2023-01-30T02:56:04.852Z,6.13
2023-01-30T02:56:53.905Z,6.14
2023-01-30T02:57:27.371Z,6.15
2023-01-30T02:58:00.275Z,6.12
2023-01-30T02:58:38.520Z,6.10
2023-01-30T02:59:12.030Z,6.14
2023-01-30T02:59:50.625Z,6.16
2023-01-30T03:00:54.076Z,6.16
2023-01-30T03:01:49.291Z,6.13
2023-01-30T03:04:04.600Z,6.16
2023-01-30T03:05:06.586Z,6.15
2023-01-30T03:06:13.505Z,6.15
2023-01-30T03:07:00.050Z,6.15
2023-01-30T03:07:53.036Z,6.15
2023-01-30T03:08:41.577Z,6.15
2023-01-30T03:09:36.710Z,6.14
2023-01-30T03:10:17.000Z,6.14
2023-01-30T03:11:16.900Z,6.14
2023-01-30T03:12:03.690Z,6.15
2023-01-30T03:12:41.456Z,6.15
2023-01-30T03:13:41.295Z,6.15
2023-01-30T03:14:27.345Z,6.14
2023-01-30T03:15:12.569Z,6.15
2023-01-30T03:16:00.135Z,6.16
2023-01-30T03:16:39.775Z,6.16
2023-01-30T03:17:13.328Z,6.16
2023-01-30T03:17:47.401Z,6.16
2023-01-30T03:18:20.520Z,6.15
2023-01-30T03:18:53.435Z,6.16
2023-01-30T03:19:32.926Z,6.14
2023-01-30T03:20:05.200Z,6.13
2023-01-30T03:20:41.351Z,6.15
2023-01-30T03:21:21.029Z,6.17
2023-01-30T03:21:52.491Z,6.11
2023-01-30T03:22:24.016Z,6.13
2023-01-30T03:22:55.710Z,6.16
2023-01-30T03:23:30.071Z,6.11
2023-01-30T03:24:03.925Z,6.15
2023-01-30T03:24:35.851Z,6.16
2023-01-30T03:25:08.832Z,6.15
2023-01-30T03:26:10.914Z,6.16
2023-01-30T03:27:07.950Z,6.13
2023-01-30T03:27:42.783Z,6.14
2023-01-30T03:28:20.085Z,6.14
2023-01-30T03:28:56.202Z,6.13
2023-01-30T03:29:27.728Z,6.14
2023-01-30T03:30:01.519Z,6.14
2023-01-30T03:31:22.334Z,6.16
2023-01-30T03:31:55.950Z,6.17
2023-01-30T03:32:27.764Z,6.17
2023-01-30T03:32:59.700Z,6.17
2023-01-30T03:33:33.656Z,6.15
2023-01-30T03:34:06.961Z,6.17
2023-01-30T03:34:39.661Z,6.16
2023-01-30T03:35:17.750Z,6.16
2023-01-30T03:35:52.949Z,6.18
2023-01-30T03:36:24.943Z,6.17
2023-01-30T03:36:56.721Z,6.15
2023-01-30T03:37:28.507Z,6.19
2023-01-30T03:38:02.005Z,6.21
2023-01-30T03:38:36.727Z,6.18
2023-01-30T03:39:08.470Z,6.22
2023-01-30T03:39:42.586Z,6.19
2023-01-30T03:40:34.504Z,6.20
2023-01-30T03:41:08.646Z,6.18
2023-01-30T03:41:42.324Z,6.23
2023-01-30T03:42:16.441Z,6.24
2023-01-30T03:42:50.577Z,6.22
2023-01-30T03:43:25.249Z,6.22
2023-01-30T03:43:57.041Z,6.20
2023-01-30T03:45:18.235Z,6.24
2023-01-30T03:45:53.091Z,6.19
2023-01-30T03:46:24.983Z,6.24
2023-01-30T03:46:57.842Z,6.24
2023-01-30T03:47:55.517Z,6.26
2023-01-30T03:48:31.552Z,6.24
2023-01-30T03:49:03.249Z,6.23
2023-01-30T03:49:37.659Z,6.27
2023-01-30T03:50:12.256Z,6.28
2023-01-30T03:50:44.302Z,6.27
2023-01-30T03:51:23.072Z,6.24
2023-01-30T03:51:54.733Z,6.28
2023-01-30T03:52:26.411Z,6.27
2023-01-30T03:52:58.074Z,6.28
2023-01-30T03:53:29.719Z,6.26
2023-01-30T03:54:06.495Z,6.28
2023-01-30T03:54:38.022Z,6.29
2023-01-30T03:55:10.412Z,6.30
2023-01-30T03:55:44.428Z,6.29
2023-01-30T03:56:16.189Z,6.27
2023-01-30T03:56:48.033Z,6.31
2023-01-30T03:57:19.552Z,6.33
2023-01-30T03:57:55.741Z,6.32
2023-01-30T03:58:27.315Z,6.28
2023-01-30T03:58:58.944Z,6.33
2023-01-30T03:59:30.468Z,6.31
2023-01-30T04:00:02.329Z,6.31
2023-01-30T04:00:35.849Z,6.30
2023-01-30T04:01:07.515Z,6.33
2023-01-30T04:01:39.401Z,6.36
2023-01-30T04:02:11.453Z,6.37
2023-01-30T04:02:43.037Z,6.36
2023-01-30T04:03:15.807Z,6.38
2023-01-30T04:03:49.633Z,6.34
2023-01-30T04:04:23.721Z,6.38
2023-01-30T04:05:13.897Z,6.34
2023-01-30T04:05:48.156Z,6.36
2023-01-30T04:06:22.682Z,6.33
2023-01-30T04:06:55.877Z,6.39
2023-01-30T04:07:30.090Z,6.37
2023-01-30T04:08:04.326Z,6.36
2023-01-30T04:08:35.821Z,6.41
2023-01-30T04:09:10.328Z,6.36
2023-01-30T04:09:48.085Z,6.37
2023-01-30T04:10:26.369Z,6.38
2023-01-30T04:11:00.225Z,6.36
2023-01-30T04:11:34.471Z,6.38
2023-01-30T04:12:06.504Z,6.38
2023-01-30T04:12:39.318Z,6.33
2023-01-30T04:13:13.035Z,6.39
2023-01-30T04:13:46.263Z,6.38
2023-01-30T04:14:17.956Z,6.40
2023-01-30T04:14:52.027Z,6.45
2023-01-30T04:15:26.305Z,6.43
2023-01-30T04:16:18.397Z,6.45
2023-01-30T04:16:50.114Z,6.41
2023-01-30T04:17:21.978Z,6.43
2023-01-30T04:17:56.037Z,6.40
2023-01-30T04:18:29.667Z,6.43
2023-01-30T04:19:01.337Z,6.43
2023-01-30T04:19:36.772Z,6.44
2023-01-30T04:20:09.294Z,6.42
2023-01-30T04:20:43.170Z,6.45
2023-01-30T04:21:15.807Z,6.43
2023-01-30T04:21:48.831Z,6.42
2023-01-30T04:22:25.783Z,6.44
2023-01-30T04:22:57.413Z,6.45
2023-01-30T04:23:31.562Z,6.45
2023-01-30T04:24:03.341Z,6.48
2023-01-30T04:24:36.188Z,6.47
2023-01-30T04:25:08.404Z,6.46
2023-01-30T04:25:40.092Z,6.44
2023-01-30T04:26:17.304Z,6.46
2023-01-30T04:26:51.480Z,6.47
2023-01-30T04:27:24.535Z,6.47
2023-01-30T04:27:56.393Z,6.48
2023-01-30T04:28:28.168Z,6.47
2023-01-30T04:29:01.551Z,6.48
2023-01-30T04:29:33.240Z,6.46
2023-01-30T04:30:05.427Z,6.48
2023-01-30T04:30:39.298Z,6.48
2023-01-30T04:31:11.568Z,6.46
2023-01-30T04:32:33.683Z,6.48
2023-01-30T04:33:05.295Z,6.49
2023-01-30T04:33:40.242Z,6.47
2023-01-30T04:34:14.600Z,6.49
2023-01-30T04:34:46.248Z,6.47
2023-01-30T04:35:22.604Z,6.48
2023-01-30T04:36:07.430Z,6.51
2023-01-30T04:36:40.946Z,6.51
2023-01-30T04:37:16.371Z,6.49
2023-01-30T04:37:49.689Z,6.47
2023-01-30T04:38:22.434Z,6.48
2023-01-30T04:38:56.300Z,6.50
2023-01-30T04:39:29.527Z,6.48
2023-01-30T04:40:01.054Z,6.47
2023-01-30T04:40:37.238Z,6.51
2023-01-30T04:41:12.069Z,6.49
2023-01-30T04:41:46.608Z,6.52
2023-01-30T04:42:18.481Z,6.46
2023-01-30T04:42:52.468Z,6.48
2023-01-30T04:43:28.364Z,6.50
2023-01-30T04:44:02.093Z,6.52
2023-01-30T04:44:36.704Z,6.50
2023-01-30T04:45:11.867Z,6.50
2023-01-30T04:45:48.354Z,6.49
2023-01-30T04:46:23.998Z,6.52
2023-01-30T04:46:55.761Z,6.52
2023-01-30T04:47:27.656Z,6.47
2023-01-30T04:47:59.401Z,6.51
2023-01-30T04:48:33.205Z,6.49
2023-01-30T04:49:04.935Z,6.51
2023-01-30T04:50:25.636Z,6.51
2023-01-30T04:51:00.561Z,6.54
2023-01-30T04:51:34.778Z,6.52
2023-01-30T04:52:09.115Z,6.52
2023-01-30T04:52:43.390Z,6.54
2023-01-30T04:53:17.984Z,6.54
2023-01-30T04:53:49.638Z,6.52
2023-01-30T04:54:21.321Z,6.47
2023-01-30T04:54:54.939Z,6.47
2023-01-30T04:56:28.879Z,6.51
2023-01-30T04:57:06.632Z,6.50
2023-01-30T04:57:46.887Z,6.50
2023-01-30T04:58:21.811Z,6.49
2023-01-30T04:58:55.818Z,6.49
2023-01-30T04:59:27.332Z,6.50
2023-01-30T04:59:58.693Z,6.49
2023-01-30T05:00:32.883Z,6.49
2023-01-30T05:01:21.249Z,6.54
2023-01-30T05:01:56.939Z,6.52
2023-01-30T05:02:28.722Z,6.52
2023-01-30T05:03:02.857Z,6.49
2023-01-30T05:03:37.548Z,6.51
2023-01-30T05:04:11.854Z,6.53
2023-01-30T05:04:46.002Z,6.50
2023-01-30T05:05:18.098Z,6.51
2023-01-30T05:05:49.859Z,6.50
2023-01-30T05:06:26.873Z,6.47
2023-01-30T05:06:58.624Z,6.48
2023-01-30T05:07:32.959Z,6.51
2023-01-30T05:08:04.686Z,6.48
2023-01-30T05:08:38.791Z,6.46
2023-01-30T05:09:13.598Z,6.49
2023-01-30T05:09:45.077Z,6.50
2023-01-30T05:10:17.812Z,6.50
2023-01-30T05:10:49.803Z,6.49
2023-01-30T05:11:23.065Z,6.50
2023-01-30T05:11:54.863Z,6.50
2023-01-30T05:12:26.780Z,6.48
2023-01-30T05:13:03.052Z,6.51
2023-01-30T05:13:34.826Z,6.51
2023-01-30T05:14:06.648Z,6.49
2023-01-30T05:14:41.383Z,6.52
2023-01-30T05:15:14.043Z,6.50
2023-01-30T05:15:47.646Z,6.48
2023-01-30T05:16:20.613Z,6.49
2023-01-30T05:16:54.735Z,6.49
2023-01-30T05:17:26.850Z,6.48
2023-01-30T05:18:00.770Z,6.47
2023-01-30T05:18:35.866Z,6.52
2023-01-30T05:19:10.166Z,6.50
2023-01-30T05:19:44.745Z,6.50
2023-01-30T05:20:18.598Z,6.49
2023-01-30T05:20:52.878Z,6.50
2023-01-30T05:21:29.646Z,6.48
2023-01-30T05:22:01.296Z,6.51
2023-01-30T05:22:33.578Z,6.48
2023-01-30T05:23:07.784Z,6.51
2023-01-30T05:23:44.046Z,6.51
2023-01-30T05:24:17.035Z,6.48
2023-01-30T05:24:48.710Z,6.48
2023-01-30T05:25:27.030Z,6.49
2023-01-30T05:25:59.078Z,6.47
2023-01-30T05:26:30.730Z,6.45
2023-01-30T05:27:07.427Z,6.45
2023-01-30T05:27:39.130Z,6.47
2023-01-30T05:28:10.817Z,6.47
2023-01-30T05:28:45.391Z,6.47
2023-01-30T05:29:17.103Z,6.46
2023-01-30T05:29:49.992Z,6.46
2023-01-30T05:30:23.917Z,6.46
2023-01-30T05:31:05.700Z,6.45
2023-01-30T05:31:47.540Z,6.47
2023-01-30T05:32:21.611Z,6.50
2023-01-30T05:32:58.530Z,6.44
2023-01-30T05:33:33.035Z,6.44
2023-01-30T05:34:07.345Z,6.45
2023-01-30T05:34:41.121Z,6.44
2023-01-30T05:35:12.581Z,6.46
2023-01-30T05:35:48.455Z,6.47
2023-01-30T05:36:26.192Z,6.45
2023-01-30T05:37:00.619Z,6.46
2023-01-30T05:37:34.537Z,6.43
2023-01-30T05:38:08.837Z,6.39
2023-01-30T05:38:44.134Z,6.41
2023-01-30T05:39:16.176Z,6.41
2023-01-30T05:39:52.814Z,6.40
2023-01-30T05:40:27.518Z,6.42
2023-01-30T05:41:04.088Z,6.41
2023-01-30T05:41:36.772Z,6.34
2023-01-30T05:42:10.050Z,6.38
2023-01-30T05:42:43.376Z,6.37
2023-01-30T05:43:17.599Z,6.38
2023-01-30T05:43:53.764Z,6.37
2023-01-30T05:44:25.444Z,6.37
2023-01-30T05:44:59.703Z,6.33
2023-01-30T05:45:35.732Z,6.31
2023-01-30T05:46:10.154Z,6.36
2023-01-30T05:46:44.262Z,6.36
2023-01-30T05:47:18.343Z,6.33
2023-01-30T05:47:58.580Z,6.33
2023-01-30T05:48:36.288Z,6.27
2023-01-30T05:49:08.220Z,6.26
2023-01-30T05:49:45.915Z,6.28
2023-01-30T05:50:17.771Z,6.31
2023-01-30T05:51:01.997Z,6.27
2023-01-30T05:51:34.153Z,6.29
2023-01-30T05:52:07.537Z,6.26
2023-01-30T05:52:39.271Z,6.26
2023-01-30T05:53:10.908Z,6.26
2023-01-30T05:53:45.200Z,6.28
2023-01-30T05:54:22.625Z,6.21
2023-01-30T05:54:54.185Z,6.26
2023-01-30T05:55:25.696Z,6.22
2023-01-30T05:56:02.371Z,6.19
2023-01-30T05:56:34.374Z,6.22
2023-01-30T05:57:08.089Z,6.23
2023-01-30T05:57:39.772Z,6.21
2023-01-30T05:58:11.828Z,6.22
2023-01-30T05:58:46.178Z,6.22
2023-01-30T05:59:22.582Z,6.21
2023-01-30T05:59:54.280Z,6.22
2023-01-30T06:00:28.197Z,6.20
2023-01-30T06:01:08.289Z,6.21
2023-01-30T06:01:41.839Z,6.20
2023-01-30T06:02:16.175Z,6.20
2023-01-30T06:02:50.564Z,6.16
2023-01-30T06:03:25.204Z,6.17
2023-01-30T06:04:01.092Z,6.18
2023-01-30T06:04:37.895Z,6.16
2023-01-30T06:05:12.441Z,6.14
2023-01-30T06:05:44.358Z,6.15
2023-01-30T06:06:16.223Z,6.15
2023-01-30T06:06:50.976Z,6.12
2023-01-30T06:07:25.021Z,6.11
2023-01-30T06:07:59.019Z,6.13
2023-01-30T06:08:34.469Z,6.07
2023-01-30T06:09:07.826Z,6.06
2023-01-30T06:09:39.435Z,6.09
2023-01-30T06:10:11.754Z,6.05
2023-01-30T06:10:45.724Z,6.08
2023-01-30T06:11:19.890Z,6.03
2023-01-30T06:11:53.222Z,6.04
2023-01-30T06:12:27.241Z,6.03
2023-01-30T06:13:01.958Z,6.02
2023-01-30T06:13:34.485Z,6.03
2023-01-30T06:14:06.504Z,6.01
2023-01-30T06:14:40.114Z,6.02
2023-01-30T06:15:12.119Z,5.99
2023-01-30T06:15:46.942Z,5.96
2023-01-30T06:16:21.041Z,5.98
2023-01-30T06:16:55.257Z,5.95
2023-01-30T06:17:31.285Z,5.93
2023-01-30T06:18:05.239Z,5.94
2023-01-30T06:18:42.578Z,5.93
2023-01-30T06:19:14.388Z,5.91
2023-01-30T06:19:46.324Z,5.88
2023-01-30T06:20:23.419Z,5.88
2023-01-30T06:20:58.751Z,5.87
2023-01-30T06:21:31.192Z,5.91
2023-01-30T06:22:13.199Z,5.88
2023-01-30T06:22:47.142Z,5.85
2023-01-30T06:23:28.519Z,5.89
2023-01-30T06:24:02.675Z,5.83
2023-01-30T06:24:34.438Z,5.84
2023-01-30T06:25:08.995Z,5.86
2023-01-30T06:25:46.339Z,5.86
2023-01-30T06:26:22.607Z,5.83
2023-01-30T06:26:56.232Z,5.81
2023-01-30T06:27:30.928Z,5.79
2023-01-30T06:28:04.499Z,5.80
2023-01-30T06:28:38.493Z,5.79
2023-01-30T06:29:10.133Z,5.78
2023-01-30T06:29:42.151Z,5.76
2023-01-30T06:30:19.755Z,5.79
2023-01-30T06:30:57.612Z,5.76
2023-01-30T06:31:31.632Z,5.72
2023-01-30T06:32:05.075Z,5.69
2023-01-30T06:32:38.945Z,5.74
2023-01-30T06:33:13.070Z,5.71
2023-01-30T06:33:47.781Z,5.69
2023-01-30T06:34:19.465Z,5.68
2023-01-30T06:34:56.082Z,5.68
2023-01-30T06:35:29.889Z,5.63
2023-01-30T06:36:04.756Z,5.65
2023-01-30T06:36:38.902Z,5.66
2023-01-30T06:37:10.698Z,5.66
2023-01-30T06:37:47.274Z,5.64
2023-01-30T06:38:23.402Z,5.66
2023-01-30T06:38:55.716Z,5.67
2023-01-30T06:39:27.488Z,5.62
2023-01-30T06:40:00.699Z,5.62
2023-01-30T06:40:36.142Z,5.59
2023-01-30T06:41:09.556Z,5.59
2023-01-30T06:41:45.021Z,5.59
2023-01-30T06:42:18.953Z,5.58
2023-01-30T06:42:53.807Z,5.55
2023-01-30T06:43:26.660Z,5.58
2023-01-30T06:44:00.607Z,5.58
2023-01-30T06:44:37.759Z,5.59
2023-01-30T06:45:09.946Z,5.58
2023-01-30T06:45:44.345Z,5.58
2023-01-30T06:46:17.933Z,5.55
2023-01-30T06:46:52.191Z,5.54
2023-01-30T06:47:28.900Z,5.54
2023-01-30T06:48:01.849Z,5.54
2023-01-30T06:49:01.505Z,5.56
2023-01-30T06:49:33.240Z,5.53
2023-01-30T06:50:07.402Z,5.53
2023-01-30T06:50:40.946Z,5.50
2023-01-30T06:51:12.620Z,5.49
2023-01-30T06:51:45.464Z,5.48
2023-01-30T06:52:26.213Z,5.49
2023-01-30T06:52:58.910Z,5.47
2023-01-30T06:53:30.807Z,5.49
2023-01-30T06:54:05.447Z,5.48
2023-01-30T06:54:39.151Z,5.49
2023-01-30T06:55:14.698Z,5.48
2023-01-30T06:55:47.694Z,5.49
2023-01-30T06:56:21.731Z,5.48
2023-01-30T06:56:53.803Z,5.47
2023-01-30T06:57:25.313Z,5.44
2023-01-30T06:58:06.880Z,5.47
2023-01-30T06:58:38.456Z,5.48
2023-01-30T06:59:10.162Z,5.48
2023-01-30T06:59:44.523Z,5.46
2023-01-30T07:00:22.634Z,5.47
2023-01-30T07:00:59.621Z,5.47
2023-01-30T07:01:31.132Z,5.44
2023-01-30T07:02:03.088Z,5.43
2023-01-30T07:02:35.599Z,5.44
2023-01-30T07:03:17.783Z,5.48
2023-01-30T07:03:49.469Z,5.46
2023-01-30T07:04:23.078Z,5.44
2023-01-30T07:04:57.325Z,5.45
2023-01-30T07:05:29.226Z,5.43
2023-01-30T07:06:02.170Z,5.46
2023-01-30T07:06:42.998Z,5.47
2023-01-30T07:07:26.567Z,5.49
2023-01-30T07:08:00.565Z,5.49
2023-01-30T07:08:32.293Z,5.47
2023-01-30T07:09:06.432Z,5.44
2023-01-30T07:10:07.905Z,5.46
2023-01-30T07:10:41.963Z,5.43
2023-01-30T07:11:13.554Z,5.42
2023-01-30T07:11:47.297Z,5.46
2023-01-30T07:12:21.823Z,5.42
2023-01-30T07:12:55.348Z,5.42
2023-01-30T07:13:27.015Z,5.39
2023-01-30T07:14:01.032Z,5.44
2023-01-30T07:14:32.688Z,5.42
2023-01-30T07:15:06.517Z,5.43
2023-01-30T07:15:37.985Z,5.37
2023-01-30T07:16:09.507Z,5.38
2023-01-30T07:16:40.991Z,5.38
2023-01-30T07:17:12.589Z,5.38
2023-01-30T07:17:44.383Z,5.37
2023-01-30T07:18:16.187Z,5.37
2023-01-30T07:18:47.722Z,5.37
2023-01-30T07:19:19.394Z,5.36
2023-01-30T07:20:42.103Z,5.33
2023-01-30T07:21:15.910Z,5.32
2023-01-30T07:22:36.055Z,5.32
2023-01-30T07:23:07.697Z,5.33
2023-01-30T07:23:39.272Z,5.31
2023-01-30T07:24:10.875Z,5.28
2023-01-30T07:24:46.175Z,5.28
2023-01-30T07:25:21.024Z,5.30
2023-01-30T07:25:52.696Z,5.27
2023-01-30T07:26:25.631Z,5.26
2023-01-30T07:26:59.208Z,5.28
2023-01-30T07:27:34.936Z,5.26
2023-01-30T07:28:06.382Z,5.27
2023-01-30T07:28:40.315Z,5.25
2023-01-30T07:29:11.863Z,5.25
2023-01-30T07:29:46.161Z,5.30
2023-01-30T07:30:18.365Z,5.26
2023-01-30T07:30:53.011Z,5.25
2023-01-30T07:31:24.656Z,5.26
2023-01-30T07:31:56.322Z,5.27
2023-01-30T07:32:28.002Z,5.24
2023-01-30T07:33:00.286Z,5.26
2023-01-30T07:33:32.071Z,5.22
2023-01-30T07:34:03.993Z,5.26
2023-01-30T07:34:35.673Z,5.27
2023-01-30T07:35:07.444Z,5.26
2023-01-30T07:35:39.131Z,5.24
2023-01-30T07:36:10.656Z,5.21
2023-01-30T07:36:42.126Z,5.22
2023-01-30T07:37:13.691Z,5.25
2023-01-30T07:37:47.255Z,5.25
2023-01-30T07:38:18.830Z,5.22
2023-01-30T07:38:50.373Z,5.25
2023-01-30T07:39:21.899Z,5.26
2023-01-30T07:39:53.458Z,5.25
2023-01-30T07:40:25.554Z,5.27
2023-01-30T07:40:57.991Z,5.26
2023-01-30T07:41:29.674Z,5.26
2023-01-30T07:42:01.770Z,5.25
2023-01-30T07:42:33.404Z,5.25
2023-01-30T07:43:10.041Z,5.22
2023-01-30T07:43:41.593Z,5.22
2023-01-30T07:44:14.180Z,5.25
2023-01-30T07:44:45.684Z,5.21
2023-01-30T07:45:17.722Z,5.22
2023-01-30T07:45:49.507Z,5.22
2023-01-30T07:46:21.081Z,5.25
2023-01-30T07:46:52.844Z,5.25
2023-01-30T07:47:24.359Z,5.25
2023-01-30T07:47:55.986Z,5.23
2023-01-30T07:48:27.608Z,5.27
2023-01-30T07:48:59.914Z,5.22
2023-01-30T07:49:31.599Z,5.25
2023-01-30T07:50:03.628Z,5.25
2023-01-30T07:50:35.374Z,5.22
2023-01-30T07:51:06.976Z,5.22
2023-01-30T07:51:56.933Z,5.22
2023-01-30T07:52:28.638Z,5.27
2023-01-30T07:53:03.318Z,5.26
2023-01-30T07:53:34.763Z,5.25
2023-01-30T07:54:06.173Z,5.25
2023-01-30T07:54:37.903Z,5.26
2023-01-30T07:55:09.529Z,5.23
2023-01-30T07:55:41.801Z,5.25
2023-01-30T07:56:18.400Z,5.27
2023-01-30T07:56:49.874Z,5.26
2023-01-30T07:57:21.391Z,5.25
2023-01-30T07:57:52.892Z,5.25
2023-01-30T07:58:24.441Z,5.24
2023-01-30T07:58:56.498Z,5.28
2023-01-30T07:59:28.074Z,5.26
2023-01-30T07:59:59.541Z,5.22
2023-01-30T08:00:31.701Z,5.27
2023-01-30T08:01:03.488Z,5.25
2023-01-30T08:01:34.998Z,5.28
2023-01-30T08:02:09.147Z,5.27
2023-01-30T08:02:40.642Z,5.24
2023-01-30T08:03:17.142Z,5.25
2023-01-30T08:03:49.396Z,5.26
2023-01-30T08:04:20.897Z,5.24
2023-01-30T08:04:52.640Z,5.24
2023-01-30T08:05:24.338Z,5.25
2023-01-30T08:05:55.783Z,5.27
2023-01-30T08:06:29.018Z,5.25
2023-01-30T08:07:00.502Z,5.25
2023-01-30T08:07:32.192Z,5.22
2023-01-30T08:08:03.681Z,5.24
2023-01-30T08:08:36.868Z,5.27
2023-01-30T08:09:11.240Z,5.25
2023-01-30T08:09:42.816Z,5.26
2023-01-30T08:10:16.911Z,5.27